Time;durP1;ratioP1;P1;durP2;ratioP2;P2;SDS_P1;SDS_P2;PMS_P1;PMS_P2;Temp;Humidity;BMP_temperature;BMP_pressure;BME280_temperature;BME280_humidity;BME280_pressure;Samples;Min_cycle;Max_cycle;Signal;HPM_P1;HPM_P2
2023/01/30 00:00:33;;;;;;;23.83;16.33;;;6.20;99.90;;;;;;5051392;28;20501;-64
2023/01/30 00:02:58;;;;;;;25.58;17.08;;;6.20;99.90;;;;;;5052434;28;20178;-64
2023/01/30 00:05:24;;;;;;;25.80;16.30;;;6.30;99.90;;;;;;5051631;28;20664;-63
2023/01/30 00:07:50;;;;;;;26.23;16.57;;;6.30;99.90;;;;;;5052378;28;20183;-64
2023/01/30 00:10:16;;;;;;;25.23;17.30;;;6.30;99.90;;;;;;5051705;28;20536;-68
2023/01/30 00:12:41;;;;;;;26.80;16.57;;;6.40;99.90;;;;;;5052267;28;20263;-63
2023/01/30 00:15:08;;;;;;;30.73;17.17;;;6.30;99.90;;;;;;5050511;28;20403;-64
2023/01/30 00:17:34;;;;;;;27.55;16.17;;;6.30;99.90;;;;;;5046360;28;20647;-64
2023/01/30 00:19:59;;;;;;;29.83;17.37;;;6.30;99.90;;;;;;5039215;28;20194;-64
2023/01/30 00:22:25;;;;;;;28.57;17.00;;;6.40;99.90;;;;;;5049797;28;20436;-64
2023/01/30 00:24:51;;;;;;;24.07;16.07;;;6.40;99.90;;;;;;5047437;28;20215;-64
2023/01/30 00:27:17;;;;;;;28.20;16.13;;;6.40;99.90;;;;;;5040203;28;20436;-67
2023/01/30 00:29:43;;;;;;;23.63;15.73;;;6.40;99.90;;;;;;5047915;28;20210;-64
2023/01/30 00:32:08;;;;;;;27.23;17.10;;;6.40;99.90;;;;;;5047550;28;20429;-64
2023/01/30 00:34:34;;;;;;;24.07;15.57;;;6.40;99.90;;;;;;5048958;28;20197;-64
2023/01/30 00:37:02;;;;;;;23.03;15.83;;;6.40;99.90;;;;;;5046895;28;20200;-64
2023/01/30 00:39:28;;;;;;;21.45;14.77;;;6.30;99.90;;;;;;5013151;28;20208;-64
2023/01/30 00:47:22;;;;;;;30.75;16.90;;;6.30;99.90;;;;;;5035790;28;20273;-64
2023/01/30 00:49:48;;;;;;;26.70;15.88;;;6.30;99.90;;;;;;5047138;28;20186;-63
2023/01/30 00:52:14;;;;;;;26.23;15.77;;;6.40;99.90;;;;;;5036464;28;20214;-64
2023/01/30 00:54:39;;;;;;;24.33;14.80;;;6.30;99.90;;;;;;5039840;28;20285;-63
2023/01/30 00:57:05;;;;;;;22.10;14.30;;;6.40;99.90;;;;;;5035264;28;20623;-64
2023/01/30 00:59:31;;;;;;;25.00;16.07;;;6.40;99.90;;;;;;5030422;28;20476;-63
2023/01/30 01:01:56;;;;;;;23.70;16.10;;;6.40;99.90;;;;;;5031336;28;20187;-64
2023/01/30 01:04:22;;;;;;;27.63;15.30;;;6.50;99.90;;;;;;5012110;28;20282;-64
2023/01/30 01:06:48;;;;;;;24.10;16.27;;;6.60;99.90;;;;;;5027497;28;20583;-64
2023/01/30 01:09:13;;;;;;;25.90;14.80;;;6.60;99.90;;;;;;5022305;28;20182;-64
2023/01/30 01:11:39;;;;;;;26.00;16.40;;;6.60;99.90;;;;;;5019147;28;20822;-64
2023/01/30 01:14:05;;;;;;;22.50;14.67;;;6.60;99.90;;;;;;5028592;28;20191;-64
2023/01/30 01:16:32;;;;;;;23.60;14.80;;;6.60;99.90;;;;;;5033016;28;20195;-64
2023/01/30 01:18:59;;;;;;;22.90;15.30;;;6.70;99.90;;;;;;5034818;28;20795;-64
2023/01/30 01:21:24;;;;;;;24.20;14.57;;;6.70;99.90;;;;;;5048031;28;20420;-64
2023/01/30 01:23:52;;;;;;;24.30;14.80;;;6.70;99.90;;;;;;5049521;28;20433;-64
2023/01/30 01:26:19;;;;;;;22.73;15.00;;;6.70;99.90;;;;;;5034799;28;20241;-67
2023/01/30 01:28:45;;;;;;;23.80;14.80;;;6.70;99.90;;;;;;5054854;28;20999;-64
2023/01/30 01:31:12;;;;;;;21.80;14.20;;;6.70;99.90;;;;;;5037299;28;20499;-63
2023/01/30 01:33:38;;;;;;;23.10;14.23;;;6.70;99.90;;;;;;5054300;28;20423;-64
2023/01/30 01:36:05;;;;;;;23.23;15.33;;;6.70;99.90;;;;;;5055082;28;20227;-64
2023/01/30 01:38:31;;;;;;;23.67;16.02;;;6.70;99.90;;;;;;5054248;28;20408;-64
2023/01/30 01:41:03;;;;;;;21.10;15.40;;;6.80;99.90;;;;;;5039474;28;20225;-64
2023/01/30 01:43:35;;;;;;;25.97;15.83;;;6.80;99.90;;;;;;5054214;28;20707;-64
2023/01/30 01:46:16;;;;;;;22.83;15.98;;;6.80;99.90;;;;;;5054999;28;20430;-64
2023/01/30 01:48:53;;;;;;;22.70;14.43;;;6.90;99.90;;;;;;5054198;28;20159;-63
2023/01/30 01:51:41;;;;;;;20.00;14.03;;;6.80;99.90;;;;;;5055038;28;20178;-63
2023/01/30 01:54:12;;;;;;;24.13;14.15;;;6.90;99.90;;;;;;5073991;28;20942;-63
2023/01/30 01:56:42;;;;;;;17.60;13.65;;;6.90;99.90;;;;;;5073403;28;20246;-64
2023/01/30 01:59:24;;;;;;;16.07;12.00;;;6.80;99.90;;;;;;5072422;28;20646;-64
2023/01/30 02:01:52;;;;;;;17.40;12.67;;;6.80;99.90;;;;;;5073168;28;20443;-63
2023/01/30 02:05:00;;;;;;;18.67;13.70;;;6.80;99.90;;;;;;5074532;28;20535;-63
2023/01/30 02:07:04;;;;;;;17.80;12.90;;;6.90;99.90;;;;;;5073158;28;20193;-64
2023/01/30 02:09:29;;;;;;;17.50;11.93;;;7.60;99.90;;;;;;5073566;28;20400;-64
2023/01/30 02:11:59;;;;;;;15.90;11.80;;;7.00;99.90;;;;;;5074591;28;20438;-64
2023/01/30 02:14:25;;;;;;;20.63;13.80;;;6.90;99.90;;;;;;5058279;28;20208;-66
2023/01/30 02:16:51;;;;;;;17.90;13.30;;;7.00;99.90;;;;;;5054430;28;20401;-64
2023/01/30 02:19:38;;;;;;;21.43;12.80;;;7.00;99.90;;;;;;5060466;28;20272;-63
2023/01/30 02:22:09;;;;;;;19.23;13.90;;;7.00;99.90;;;;;;5074240;28;20176;-64
2023/01/30 02:25:12;;;;;;;21.60;13.30;;;6.90;99.90;;;;;;5073162;28;20452;-64
2023/01/30 02:28:15;;;;;;;19.50;13.17;;;7.00;99.90;;;;;;5072192;28;20469;-64
2023/01/30 02:30:49;;;;;;;20.43;13.53;;;7.10;99.90;;;;;;5068568;28;20405;-64
2023/01/30 02:33:21;;;;;;;16.20;12.50;;;7.00;99.90;;;;;;5054170;28;20409;-63
2023/01/30 02:35:59;;;;;;;15.48;12.43;;;7.00;99.90;;;;;;5052358;28;20460;-63
2023/01/30 02:38:52;;;;;;;18.07;13.60;;;6.90;99.90;;;;;;5052464;28;20171;-67
2023/01/30 02:41:43;;;;;;;22.25;14.45;;;6.90;99.90;;;;;;5040754;28;20470;-64
2023/01/30 02:44:28;;;;;;;19.07;13.23;;;7.00;99.90;;;;;;5033883;28;20172;-64
2023/01/30 02:47:00;;;;;;;22.13;14.50;;;7.00;99.90;;;;;;5033440;28;20429;-65
2023/01/30 02:49:45;;;;;;;22.50;14.68;;;7.00;99.90;;;;;;5033813;28;20430;-67
2023/01/30 02:52:12;;;;;;;20.27;14.43;;;7.00;99.90;;;;;;5016208;28;20169;-64
2023/01/30 02:54:38;;;;;;;21.60;14.95;;;6.90;99.90;;;;;;5032965;28;20179;-64
2023/01/30 02:57:18;;;;;;;25.47;15.40;;;7.00;99.90;;;;;;5033677;28;20621;-64
2023/01/30 02:59:48;;;;;;;21.30;15.20;;;7.10;99.90;;;;;;5032866;28;20171;-64
2023/01/30 03:02:32;;;;;;;24.40;16.13;;;7.10;99.90;;;;;;5033283;28;20418;-64
2023/01/30 03:05:07;;;;;;;21.70;15.00;;;7.10;99.90;;;;;;5016545;28;20568;-64
2023/01/30 03:07:49;;;;;;;25.38;15.88;;;7.20;99.90;;;;;;5032622;28;20425;-64
2023/01/30 03:10:22;;;;;;;21.50;14.73;;;7.10;99.90;;;;;;5033573;28;20179;-63
2023/01/30 03:12:53;;;;;;;22.93;15.03;;;7.00;99.90;;;;;;5014977;28;20615;-63
2023/01/30 03:15:40;;;;;;;21.87;15.13;;;7.00;99.90;;;;;;5033382;28;20508;-64
2023/01/30 03:18:07;;;;;;;26.53;16.33;;;7.10;99.90;;;;;;5041102;28;20937;-63
2023/01/30 03:20:38;;;;;;;21.90;15.53;;;7.00;99.90;;;;;;5052220;28;20830;-64
2023/01/30 03:23:04;;;;;;;22.60;14.67;;;7.00;99.90;;;;;;5036772;28;20520;-64
2023/01/30 03:25:31;;;;;;;21.83;15.70;;;7.10;99.90;;;;;;5014584;28;20784;-64
2023/01/30 03:27:57;;;;;;;19.13;15.67;;;7.20;99.90;;;;;;5015662;28;20472;-64
2023/01/30 03:30:24;;;;;;;25.20;17.27;;;7.30;99.90;;;;;;5033467;28;20477;-64
2023/01/30 03:32:50;;;;;;;26.90;16.60;;;7.30;99.90;;;;;;5032003;28;20918;-64
2023/01/30 03:35:16;;;;;;;22.43;16.20;;;7.20;99.90;;;;;;5015180;28;20438;-63
2023/01/30 03:37:43;;;;;;;22.60;15.97;;;7.20;99.90;;;;;;5031890;28;20174;-63
2023/01/30 03:40:11;;;;;;;19.80;15.10;;;7.20;99.90;;;;;;5033304;28;20354;-64
2023/01/30 03:42:37;;;;;;;22.07;14.87;;;7.20;99.90;;;;;;4997974;28;20425;-64
2023/01/30 03:45:02;;;;;;;23.97;15.67;;;7.20;99.90;;;;;;5015158;28;20537;-64
2023/01/30 03:47:28;;;;;;;28.37;17.50;;;7.20;99.90;;;;;;5014243;28;20188;-68
2023/01/30 03:49:54;;;;;;;21.17;14.30;;;7.30;99.90;;;;;;5014510;28;20809;-64
2023/01/30 03:52:19;;;;;;;23.37;15.37;;;7.30;99.90;;;;;;5032601;28;20180;-64
2023/01/30 03:54:45;;;;;;;21.57;15.77;;;7.20;99.90;;;;;;5032046;28;20177;-64
2023/01/30 03:57:11;;;;;;;22.63;15.30;;;7.30;99.90;;;;;;5032822;28;20206;-64
2023/01/30 03:59:36;;;;;;;20.20;14.63;;;7.30;99.90;;;;;;5013895;28;20179;-64
2023/01/30 04:02:02;;;;;;;28.03;16.47;;;7.40;99.90;;;;;;5032555;28;20184;-64
2023/01/30 04:04:28;;;;;;;22.30;15.50;;;7.30;99.90;;;;;;5014421;28;20215;-67
2023/01/30 04:06:53;;;;;;;23.10;15.53;;;7.20;99.90;;;;;;5032239;28;20175;-64
2023/01/30 04:09:19;;;;;;;26.90;14.67;;;7.20;99.90;;;;;;5032842;28;20210;-64
2023/01/30 04:11:45;;;;;;;21.37;14.40;;;7.20;99.90;;;;;;5031332;28;20172;-64
2023/01/30 04:14:10;;;;;;;18.47;14.20;;;7.40;99.90;;;;;;5049042;28;20196;-64
2023/01/30 04:16:36;;;;;;;21.73;15.10;;;7.40;99.90;;;;;;5032881;28;20191;-65
2023/01/30 04:19:02;;;;;;;23.40;15.10;;;7.40;99.90;;;;;;5032314;28;20636;-64
2023/01/30 04:21:27;;;;;;;21.60;14.70;;;7.40;99.90;;;;;;5032212;28;20261;-64
2023/01/30 04:23:53;;;;;;;21.60;15.13;;;7.40;99.90;;;;;;5031564;28;20577;-64
2023/01/30 04:26:19;;;;;;;21.60;13.90;;;7.50;99.90;;;;;;5032135;28;20204;-64
2023/01/30 04:28:44;;;;;;;18.27;14.00;;;7.40;99.90;;;;;;5031126;28;20191;-64
2023/01/30 04:31:10;;;;;;;20.80;14.30;;;7.40;99.90;;;;;;5048514;28;20200;-64
2023/01/30 04:33:38;;;;;;;17.73;14.30;;;7.40;99.90;;;;;;5051254;28;20171;-64
2023/01/30 04:36:06;;;;;;;18.87;14.87;;;7.40;99.90;;;;;;5052329;28;20232;-64
2023/01/30 04:38:32;;;;;;;18.67;13.50;;;7.40;99.90;;;;;;5051597;28;20539;-67
2023/01/30 04:40:58;;;;;;;20.00;13.97;;;7.30;99.90;;;;;;5051765;28;20477;-64
2023/01/30 04:43:26;;;;;;;21.43;13.93;;;7.20;99.90;;;;;;5051657;28;20779;-64
2023/01/30 04:45:52;;;;;;;21.20;14.17;;;7.30;99.90;;;;;;5033182;28;20453;-64
2023/01/30 04:48:19;;;;;;;16.43;12.37;;;7.30;99.90;;;;;;5049675;28;20436;-63
2023/01/30 04:50:48;;;;;;;19.87;13.63;;;7.30;99.90;;;;;;5051628;28;20475;-64
2023/01/30 04:53:15;;;;;;;18.47;12.73;;;7.40;99.90;;;;;;5033981;28;20472;-64
2023/01/30 04:55:41;;;;;;;18.40;12.23;;;7.30;99.90;;;;;;5051312;28;20422;-63
2023/01/30 04:58:07;;;;;;;15.50;11.43;;;7.40;99.90;;;;;;5052135;28;20425;-64
2023/01/30 05:00:33;;;;;;;15.40;11.43;;;7.40;99.90;;;;;;5051520;28;20389;-67
2023/01/30 05:02:58;;;;;;;14.03;10.70;;;7.40;99.90;;;;;;5021457;28;20248;-64
2023/01/30 05:05:25;;;;;;;16.40;11.23;;;7.50;99.90;;;;;;5054505;28;20943;-64
2023/01/30 05:07:51;;;;;;;14.60;10.67;;;7.50;99.90;;;;;;5054856;28;20214;-63
2023/01/30 05:10:17;;;;;;;14.70;10.90;;;7.50;99.90;;;;;;5055324;28;20432;-63
2023/01/30 05:12:44;;;;;;;14.60;10.17;;;7.50;99.90;;;;;;5037049;28;20183;-63
2023/01/30 05:15:11;;;;;;;12.93;10.30;;;7.60;99.90;;;;;;5037649;28;20416;-63
2023/01/30 05:17:37;;;;;;;11.67;9.30;;;7.50;99.90;;;;;;5053109;28;20453;-64
2023/01/30 05:20:05;;;;;;;17.10;9.77;;;7.70;99.90;;;;;;5055206;28;20435;-65
2023/01/30 05:22:30;;;;;;;11.67;10.00;;;7.70;99.90;;;;;;5054823;28;20779;-63
2023/01/30 05:24:56;;;;;;;10.20;8.93;;;7.60;99.90;;;;;;5054175;28;20512;-63
2023/01/30 05:27:22;;;;;;;12.10;8.30;;;7.70;99.90;;;;;;5055575;28;20180;-63
2023/01/30 05:29:48;;;;;;;9.97;8.97;;;7.70;99.90;;;;;;5054510;28;20766;-63
2023/01/30 05:32:15;;;;;;;8.90;7.73;;;7.70;99.90;;;;;;5053766;28;20505;-62
2023/01/30 05:34:41;;;;;;;11.50;8.73;;;7.70;99.90;;;;;;5025725;28;20542;-65
2023/01/30 05:37:07;;;;;;;11.67;8.17;;;7.80;99.90;;;;;;5045551;28;20521;-64
2023/01/30 05:39:33;;;;;;;9.00;8.10;;;7.80;99.90;;;;;;5037560;28;20176;-66
2023/01/30 05:41:59;;;;;;;9.80;8.80;;;7.80;99.90;;;;;;5053077;28;20519;-63
2023/01/30 05:44:24;;;;;;;10.77;7.80;;;7.90;99.90;;;;;;5055373;28;20478;-62
2023/01/30 05:46:50;;;;;;;9.17;7.77;;;7.90;99.90;;;;;;5047128;28;20190;-63
2023/01/30 05:49:16;;;;;;;11.10;9.07;;;7.90;99.90;;;;;;5042682;28;20184;-62
2023/01/30 05:51:42;;;;;;;8.53;7.37;;;7.90;99.90;;;;;;5052229;28;20222;-62
2023/01/30 05:54:07;;;;;;;11.67;8.10;;;8.00;99.90;;;;;;5054462;28;20181;-63
2023/01/30 05:56:33;;;;;;;9.67;8.30;;;7.90;99.90;;;;;;5019861;28;20195;-63
2023/01/30 05:59:00;;;;;;;10.30;8.87;;;7.90;99.90;;;;;;5050177;28;20185;-63
2023/01/30 06:01:27;;;;;;;9.07;7.03;;;7.90;99.90;;;;;;5039493;28;20444;-62
2023/01/30 06:03:54;;;;;;;12.20;8.80;;;7.90;99.90;;;;;;5036445;28;20435;-63
2023/01/30 06:06:21;;;;;;;9.00;7.90;;;7.80;99.90;;;;;;5039036;28;20479;-63
2023/01/30 06:08:47;;;;;;;9.83;7.93;;;7.80;99.90;;;;;;5054061;28;20415;-63
2023/01/30 06:11:15;;;;;;;11.67;8.83;;;7.80;99.90;;;;;;5046375;28;21045;-65
2023/01/30 06:13:42;;;;;;;10.80;8.77;;;7.90;99.90;;;;;;5016438;28;20520;-63
2023/01/30 06:16:10;;;;;;;14.33;11.27;;;7.80;99.90;;;;;;5032764;28;20756;-63
2023/01/30 06:18:37;;;;;;;11.10;9.20;;;7.90;99.90;;;;;;5023989;28;20431;-67
2023/01/30 06:21:03;;;;;;;10.60;8.83;;;7.70;99.90;;;;;;5049614;28;20435;-62
2023/01/30 06:23:29;;;;;;;13.20;10.30;;;7.80;99.90;;;;;;5050130;28;20430;-63
2023/01/30 06:25:55;;;;;;;14.33;9.43;;;7.80;99.90;;;;;;5053306;28;20450;-63
2023/01/30 06:28:21;;;;;;;13.67;10.97;;;7.80;99.90;;;;;;5033520;28;20799;-63
2023/01/30 06:30:47;;;;;;;12.40;10.07;;;7.80;99.90;;;;;;5048991;28;20277;-63
2023/01/30 06:33:13;;;;;;;14.83;10.67;;;7.70;99.90;;;;;;5034571;28;20434;-63
2023/01/30 06:35:40;;;;;;;13.40;10.97;;;7.80;99.90;;;;;;5031587;28;20578;-63
2023/01/30 06:38:10;;;;;;;16.47;11.90;;;7.80;99.90;;;;;;5021444;28;20831;-63
2023/01/30 06:40:36;;;;;;;13.37;10.50;;;7.80;99.90;;;;;;5040204;28;20471;-63
2023/01/30 06:43:03;;;;;;;15.47;11.83;;;7.80;99.90;;;;;;5052895;28;20783;-64
2023/01/30 06:45:29;;;;;;;14.13;11.07;;;7.80;99.90;;;;;;5033365;28;20459;-64
2023/01/30 06:47:55;;;;;;;15.67;12.07;;;7.90;99.90;;;;;;5034977;28;20437;-63
2023/01/30 06:50:24;;;;;;;15.73;12.30;;;8.00;99.90;;;;;;5046691;28;20262;-63
2023/01/30 06:52:51;;;;;;;14.00;11.20;;;8.00;99.90;;;;;;5050335;28;20473;-63
2023/01/30 06:55:19;;;;;;;16.53;12.13;;;8.10;99.90;;;;;;5047847;28;20931;-63
2023/01/30 06:57:46;;;;;;;12.90;10.97;;;8.00;99.90;;;;;;5029344;28;20762;-63
2023/01/30 07:00:15;;;;;;;14.87;11.17;;;8.10;99.90;;;;;;5026564;28;20439;-63
2023/01/30 07:02:41;;;;;;;15.00;12.20;;;8.10;99.90;;;;;;5044482;28;20435;-63
2023/01/30 07:05:08;;;;;;;16.07;13.63;;;8.10;99.90;;;;;;5034156;28;20494;-63
2023/01/30 07:07:34;;;;;;;16.57;11.97;;;8.10;99.90;;;;;;5015547;28;20448;-63
2023/01/30 07:10:00;;;;;;;21.30;13.47;;;8.20;99.90;;;;;;5018583;28;20449;-63
2023/01/30 07:12:26;;;;;;;20.00;16.83;;;8.10;99.90;;;;;;5036873;28;20434;-62
2023/01/30 07:14:53;;;;;;;20.30;14.03;;;8.00;99.90;;;;;;5049676;28;20443;-63
2023/01/30 07:17:21;;;;;;;17.20;13.33;;;8.00;99.90;;;;;;5043239;28;20436;-63
2023/01/30 07:19:47;;;;;;;17.73;12.93;;;8.10;99.90;;;;;;5042379;28;20511;-62
2023/01/30 07:22:14;;;;;;;16.93;13.30;;;8.10;99.90;;;;;;5032531;28;20585;-63
2023/01/30 07:24:41;;;;;;;15.03;12.60;;;8.10;99.90;;;;;;5045713;28;20549;-64
2023/01/30 07:27:08;;;;;;;14.33;12.47;;;8.20;99.90;;;;;;5041760;28;20798;-62
2023/01/30 07:29:35;;;;;;;18.87;12.40;;;8.20;99.90;;;;;;5032809;28;20430;-63
2023/01/30 07:32:01;;;;;;;17.77;13.03;;;8.20;99.90;;;;;;5047547;28;20432;-63
2023/01/30 07:34:30;;;;;;;14.60;12.27;;;8.30;99.90;;;;;;5014974;28;20417;-63
2023/01/30 07:36:56;;;;;;;17.43;12.57;;;8.40;99.90;;;;;;5017829;28;20432;-63
2023/01/30 07:39:22;;;;;;;15.77;11.80;;;8.30;99.90;;;;;;5048911;28;20435;-63
2023/01/30 07:41:48;;;;;;;17.03;13.20;;;8.30;99.90;;;;;;5051371;28;20460;-63
2023/01/30 07:44:13;;;;;;;18.17;13.40;;;8.30;99.90;;;;;;5035481;28;20668;-63
2023/01/30 07:46:39;;;;;;;12.90;11.40;;;8.40;99.90;;;;;;5015147;28;20183;-63
2023/01/30 07:49:06;;;;;;;15.37;12.17;;;8.40;99.90;;;;;;5014405;28;20261;-63
2023/01/30 07:51:32;;;;;;;15.90;12.63;;;8.40;99.90;;;;;;5014951;28;20423;-63
2023/01/30 07:53:59;;;;;;;16.90;12.40;;;8.40;99.90;;;;;;5031711;28;20427;-62
2023/01/30 07:56:25;;;;;;;17.03;12.40;;;8.50;99.90;;;;;;5032570;28;20468;-63
2023/01/30 07:58:53;;;;;;;17.23;11.87;;;8.50;99.90;;;;;;4997967;28;20925;-63
2023/01/30 08:01:18;;;;;;;14.80;10.80;;;8.50;99.90;;;;;;5032800;28;20174;-63
2023/01/30 08:03:45;;;;;;;16.33;11.13;;;8.50;99.90;;;;;;5037393;28;20443;-68
2023/01/30 08:06:12;;;;;;;11.93;10.67;;;8.50;99.90;;;;;;5013431;28;20209;-63
2023/01/30 08:08:38;;;;;;;14.60;11.57;;;8.50;99.90;;;;;;5032275;28;20827;-63
2023/01/30 08:11:05;;;;;;;14.63;10.47;;;8.50;99.90;;;;;;5031902;28;20419;-64
2023/01/30 08:13:30;;;;;;;12.77;10.50;;;8.50;99.90;;;;;;5032101;28;20915;-64
2023/01/30 08:16:03;;;;;;;16.40;13.53;;;8.50;99.90;;;;;;5032205;28;20417;-63
2023/01/30 08:18:30;;;;;;;15.20;10.13;;;8.60;99.90;;;;;;4998436;28;20174;-63
2023/01/30 08:21:01;;;;;;;13.40;9.60;;;8.60;99.90;;;;;;5030566;28;20526;-66
2023/01/30 08:23:28;;;;;;;14.90;8.83;;;8.90;99.90;;;;;;5024407;28;20479;-66
2023/01/30 08:25:58;;;;;;;13.20;7.73;;;9.70;99.90;;;;;;5036347;28;20468;-66
2023/01/30 08:28:24;;;;;;;10.30;9.17;;;10.20;99.90;;;;;;5047098;28;20917;-67
2023/01/30 08:30:52;;;;;;;13.90;8.17;;;10.80;99.90;;;;;;5022446;28;20600;-66
2023/01/30 08:33:18;;;;;;;9.50;8.60;;;11.40;99.90;;;;;;5042018;28;20629;-66
2023/01/30 08:35:44;;;;;;;13.47;7.97;;;11.80;99.90;;;;;;5042509;28;20801;-69
2023/01/30 08:38:10;;;;;;;10.35;7.00;;;12.30;99.90;;;;;;5027418;28;20429;-63
2023/01/30 08:40:36;;;;;;;8.80;6.30;;;12.60;99.90;;;;;;5041022;28;20276;-63
2023/01/30 08:43:02;;;;;;;8.40;7.53;;;12.20;99.90;;;;;;5040133;28;20455;-63
2023/01/30 08:45:29;;;;;;;9.83;6.00;;;11.80;99.90;;;;;;5034553;28;20463;-63
2023/01/30 08:47:58;;;;;;;10.47;7.50;;;11.50;99.90;;;;;;5055803;28;20412;-63
2023/01/30 08:50:24;;;;;;;11.10;6.60;;;10.90;99.90;;;;;;5056338;28;20477;-63
2023/01/30 08:52:50;;;;;;;8.17;5.80;;;10.50;99.90;;;;;;5055448;28;20422;-63
2023/01/30 08:55:16;;;;;;;12.77;6.20;;;10.40;99.90;;;;;;5054833;28;20207;-63
2023/01/30 08:57:42;;;;;;;7.17;5.83;;;10.20;99.90;;;;;;5056338;28;20185;-63
2023/01/30 09:00:08;;;;;;;8.80;5.93;;;9.90;99.90;;;;;;5055586;28;20503;-63
2023/01/30 09:02:34;;;;;;;9.60;6.40;;;9.80;99.90;;;;;;5055401;28;20178;-63
2023/01/30 09:05:00;;;;;;;7.00;5.80;;;9.70;99.90;;;;;;5054935;28;20464;-64
2023/01/30 09:07:27;;;;;;;8.27;6.80;;;9.50;99.90;;;;;;5055973;28;20257;-64
2023/01/30 09:09:53;;;;;;;13.37;8.67;;;9.40;99.90;;;;;;5055060;28;20170;-64
2023/01/30 09:12:19;;;;;;;7.33;5.50;;;9.30;99.90;;;;;;5053722;28;20508;-66
2023/01/30 09:14:45;;;;;;;8.67;5.10;;;9.10;99.90;;;;;;5021301;28;20823;-68
2023/01/30 09:17:12;;;;;;;6.33;4.47;;;9.00;99.90;;;;;;5056109;28;20760;-63
2023/01/30 09:19:37;;;;;;;6.83;6.23;;;8.90;99.90;;;;;;5054673;28;20419;-63
2023/01/30 09:22:04;;;;;;;14.17;7.27;;;8.80;99.90;;;;;;5054875;28;20750;-64
2023/01/30 09:24:30;;;;;;;6.20;4.80;;;8.70;99.90;;;;;;5055766;28;20185;-63
2023/01/30 09:26:57;;;;;;;8.03;4.97;;;8.70;99.90;;;;;;5053402;28;20912;-63
2023/01/30 09:29:24;;;;;;;6.20;4.83;;;8.70;99.90;;;;;;5046669;28;20182;-63
2023/01/30 09:31:50;;;;;;;7.23;5.60;;;8.60;99.90;;;;;;5039584;28;20424;-63
2023/01/30 09:34:16;;;;;;;9.93;5.10;;;8.60;99.90;;;;;;5055586;28;20415;-63
2023/01/30 09:36:42;;;;;;;7.80;4.60;;;8.60;99.90;;;;;;5042777;28;20265;-63
2023/01/30 09:39:08;;;;;;;9.53;4.30;;;8.60;99.90;;;;;;5049395;28;20222;-63
2023/01/30 09:41:57;;;;;;;9.33;4.43;;;8.70;99.90;;;;;;5045194;28;20526;-63
2023/01/30 09:44:50;;;;;;;8.80;6.43;;;8.70;99.90;;;;;;5043288;28;20933;-63
2023/01/30 09:47:47;;;;;;;6.93;5.03;;;8.60;99.90;;;;;;5042216;28;20469;-63
2023/01/30 09:50:16;;;;;;;7.60;5.50;;;8.70;99.90;;;;;;5055360;28;20420;-63
2023/01/30 09:53:20;;;;;;;7.07;5.23;;;8.60;99.90;;;;;;5048370;28;20973;-64
2023/01/30 09:55:46;;;;;;;15.53;4.77;;;8.70;99.90;;;;;;5032987;28;20448;-63
2023/01/30 09:58:20;;;;;;;10.33;4.50;;;8.80;99.90;;;;;;5030711;28;20416;-64
2023/01/30 10:00:48;;;;;;;15.30;4.53;;;8.90;99.90;;;;;;5050247;28;20403;-64
2023/01/30 10:03:23;;;;;;;4.70;3.93;;;9.00;99.90;;;;;;5033394;28;20420;-64
2023/01/30 10:05:52;;;;;;;10.63;4.13;;;9.00;99.90;;;;;;5031047;28;20478;-63
2023/01/30 10:08:24;;;;;;;5.10;4.27;;;8.90;99.90;;;;;;5034680;28;20440;-64
2023/01/30 10:11:17;;;;;;;9.40;5.37;;;8.90;99.90;;;;;;5049411;28;20437;-64
2023/01/30 10:14:02;;;;;;;12.00;7.07;;;8.80;99.90;;;;;;5037839;28;20435;-63
2023/01/30 10:16:43;;;;;;;7.97;4.13;;;8.70;99.90;;;;;;5034860;28;20409;-63
2023/01/30 10:19:31;;;;;;;7.20;3.97;;;8.70;99.90;;;;;;5034209;28;20882;-63
2023/01/30 10:22:12;;;;;;;7.60;6.90;;;8.80;99.90;;;;;;5034015;28;20864;-63
2023/01/30 10:25:01;;;;;;;8.50;5.70;;;8.80;99.90;;;;;;5044597;28;20451;-63
2023/01/30 10:27:31;;;;;;;9.10;4.53;;;8.70;99.90;;;;;;5049629;28;20416;-63
2023/01/30 10:30:00;;;;;;;6.70;4.13;;;8.70;99.90;;;;;;5053951;28;20416;-63
2023/01/30 10:32:44;;;;;;;10.03;3.97;;;8.70;99.90;;;;;;5036818;28;20431;-63
2023/01/30 10:35:23;;;;;;;7.53;3.93;;;8.70;99.90;;;;;;5035051;28;20471;-63
2023/01/30 10:38:15;;;;;;;8.37;3.80;;;8.70;99.90;;;;;;5015838;28;20440;-64
2023/01/30 10:40:57;;;;;;;9.40;4.07;;;8.90;99.90;;;;;;5045352;28;20472;-63
2023/01/30 10:43:31;;;;;;;4.17;3.40;;;8.90;99.90;;;;;;5055110;28;20925;-63
2023/01/30 10:46:09;;;;;;;8.67;5.00;;;8.80;99.90;;;;;;5065793;28;20457;-64
2023/01/30 10:48:56;;;;;;;9.90;6.30;;;8.80;99.90;;;;;;5073131;28;20407;-63
2023/01/30 10:51:48;;;;;;;11.10;5.20;;;8.90;99.90;;;;;;5054112;28;20416;-63
2023/01/30 10:54:16;;;;;;;8.93;4.27;;;8.90;99.90;;;;;;5052421;28;20547;-63
2023/01/30 10:57:12;;;;;;;7.10;4.50;;;8.90;99.90;;;;;;5052558;28;20420;-63
2023/01/30 10:59:51;;;;;;;11.53;4.50;;;8.90;99.90;;;;;;5061134;28;20416;-63
2023/01/30 11:02:25;;;;;;;8.00;4.20;;;8.90;99.90;;;;;;5068872;28;20851;-64
2023/01/30 11:05:01;;;;;;;6.70;3.13;;;8.90;99.90;;;;;;5053750;28;20486;-63
2023/01/30 11:07:30;;;;;;;8.47;2.93;;;9.00;99.90;;;;;;5059767;28;20511;-64
2023/01/30 11:09:58;;;;;;;6.80;3.73;;;9.00;99.90;;;;;;5055108;28;20443;-63
2023/01/30 11:12:23;;;;;;;8.07;3.47;;;9.00;99.90;;;;;;5072482;28;20451;-63
2023/01/30 11:15:00;;;;;;;9.83;5.07;;;9.00;99.90;;;;;;5089771;28;20507;-63
2023/01/30 11:17:33;;;;;;;9.73;3.80;;;8.90;99.90;;;;;;5070649;28;20184;-63
2023/01/30 11:20:09;;;;;;;10.33;3.60;;;8.90;99.90;;;;;;5035133;28;20417;-63
2023/01/30 11:22:36;;;;;;;5.60;2.77;;;8.90;99.90;;;;;;5053360;28;20415;-64
2023/01/30 11:25:21;;;;;;;8.83;6.07;;;8.90;99.90;;;;;;5051614;28;20483;-63
2023/01/30 11:27:59;;;;;;;10.00;3.70;;;8.90;99.90;;;;;;5053527;28;20408;-62
2023/01/30 11:30:32;;;;;;;11.90;3.60;;;8.90;99.90;;;;;;5053512;28;20404;-62
2023/01/30 11:33:30;;;;;;;13.20;4.60;;;8.90;99.90;;;;;;5071622;28;20769;-64
2023/01/30 11:35:57;;;;;;;6.97;3.40;;;8.90;99.90;;;;;;5052567;28;20444;-63
2023/01/30 11:38:29;;;;;;;5.67;2.27;;;9.00;99.90;;;;;;5058816;28;20430;-63
2023/01/30 11:41:06;;;;;;;9.07;2.60;;;9.00;99.90;;;;;;5052408;28;20622;-67
2023/01/30 11:43:34;;;;;;;6.80;4.13;;;9.00;99.90;;;;;;5052591;28;20404;-62
2023/01/30 11:46:00;;;;;;;5.00;3.80;;;9.10;99.90;;;;;;5052091;28;20945;-63
2023/01/30 11:48:31;;;;;;;9.17;5.13;;;9.10;99.90;;;;;;5052855;28;20502;-63
2023/01/30 11:51:05;;;;;;;7.77;4.30;;;9.00;99.90;;;;;;5052333;28;20404;-63
2023/01/30 11:53:38;;;;;;;8.20;4.73;;;9.10;99.90;;;;;;5052916;28;20463;-63
2023/01/30 11:56:07;;;;;;;7.00;4.30;;;9.10;99.90;;;;;;5052310;28;20415;-63
2023/01/30 11:58:37;;;;;;;19.90;5.20;;;9.20;99.90;;;;;;5052474;28;20812;-63
2023/01/30 12:01:04;;;;;;;9.00;5.00;;;9.20;99.90;;;;;;5031991;28;20424;-63
2023/01/30 12:03:32;;;;;;;10.80;5.40;;;9.20;99.90;;;;;;5032627;28;20425;-63
2023/01/30 12:05:58;;;;;;;10.63;4.80;;;9.30;99.90;;;;;;5014546;28;20543;-63
2023/01/30 12:08:26;;;;;;;8.43;4.37;;;9.30;99.90;;;;;;5032757;28;20427;-63
2023/01/30 12:11:01;;;;;;;5.67;3.97;;;9.40;99.90;;;;;;5032782;28;20452;-63
2023/01/30 12:13:31;;;;;;;7.47;3.80;;;9.30;99.90;;;;;;5032719;28;20405;-63
2023/01/30 12:16:25;;;;;;;7.37;3.50;;;9.10;99.90;;;;;;5032144;28;20426;-64
2023/01/30 12:19:03;;;;;;;7.37;3.80;;;9.00;99.90;;;;;;4981963;28;20417;-63
2023/01/30 12:22:13;;;;;;;10.40;4.33;;;9.10;99.90;;;;;;5032631;28;20421;-64
2023/01/30 12:25:16;;;;;;;6.10;3.60;;;9.00;99.90;;;;;;5007033;28;20810;-63
2023/01/30 12:27:48;;;;;;;10.20;3.03;;;9.00;99.90;;;;;;5032470;28;20444;-63
2023/01/30 12:30:30;;;;;;;8.47;3.90;;;9.00;99.90;;;;;;5038932;28;20790;-64
2023/01/30 12:33:00;;;;;;;12.47;3.93;;;9.00;99.90;;;;;;5052018;28;20499;-69
2023/01/30 12:35:46;;;;;;;7.43;4.13;;;9.00;99.90;;;;;;5052388;28;20416;-64
2023/01/30 12:38:25;;;;;;;7.83;3.30;;;9.10;99.90;;;;;;5051840;28;20491;-64
2023/01/30 12:41:00;;;;;;;5.60;3.00;;;9.20;99.90;;;;;;5050349;28;20833;-63
2023/01/30 12:43:58;;;;;;;9.57;3.30;;;9.30;99.90;;;;;;5072208;28;20420;-63
2023/01/30 12:46:29;;;;;;;9.27;3.47;;;9.20;99.90;;;;;;5072021;28;20454;-64
2023/01/30 12:49:30;;;;;;;8.10;5.20;;;9.30;99.90;;;;;;5051662;28;20938;-63
2023/01/30 12:52:37;;;;;;;10.63;4.00;;;9.40;99.90;;;;;;4971171;28;20451;-63
2023/01/30 12:55:21;;;;;;;9.30;3.90;;;9.40;99.90;;;;;;4974061;28;20439;-62
2023/01/30 12:58:15;;;;;;;9.50;3.97;;;9.40;99.90;;;;;;4990787;28;20490;-63
2023/01/30 13:01:00;;;;;;;16.17;3.57;;;9.30;99.90;;;;;;5036558;28;20416;-64
2023/01/30 13:03:29;;;;;;;5.93;4.17;;;9.30;99.90;;;;;;5052334;28;20403;-63
2023/01/30 13:06:13;;;;;;;7.37;4.50;;;9.40;99.90;;;;;;5064239;28;20487;-63